Dickinson, TX

4:47 PM CDT on September 01, 2015 (GMT -0500)
Nana's House | | Change Station
CLOSE
Current Station
Personal Weather Station
Location: League City, TX
Elevation: 30 ft
Nearby Weather Stations

Elev 30 ft 29.49 °N, 95.10 °W | Updated 9 minutes ago

Overcast
Overcast
80.6 °F
Feels Like 87 °F
N
2.2
Wind Variable Wind from ESE

Today
High -- | Low -- °F
--% Chance of Precip.
Yesterday
High -- | Low -- °F
Precip. -- in
6:57 AM 7:42 PM
Waning Gibbous, 86% visible
Pressure 30.04 in
Visibility 10.0 miles
Clouds Scattered Clouds 1600 ft
Mostly Cloudy 12000 ft
Overcast 25000 ft
Heat Index 87 °F
Dew Point 77 °F
Humidity 88%
Rainfall 0.94 in
Snow Depth Not available.
UV 2 out of 12
Pollen 5.50 out of 12
Air Quality Not available.
Flu Activity Not available.
METAR KEFD 012050Z 04004KT 10SM SCT016 BKN120 OVC250 25/23 A3004
Pressure 30.04 in
Visibility 10.0 miles
Clouds Scattered Clouds 1600 ft
Mostly Cloudy 12000 ft
Overcast 25000 ft
Heat Index 87 °F
Dew Point 77 °F
Humidity 88%
Rainfall 0.94 in
Snow Depth Not available.
UV 2 out of 12
Pollen 5.50 out of 12
Air Quality Not available.
Flu Activity Not available.
METAR KEFD 012050Z 04004KT 10SM SCT016 BKN120 OVC250 25/23 A3004

10-Day Weather Forecast

×

Almanac

Astronomy

Sep. 01, 2015 Rise Set
Actual Time
Civil Twilight
Nautical Twilight
Astronomical Twilight
Moon
Length of Visible Light
Length of Day
Tomorrow will be .
, % of the Moon is Illuminated

Today's Extremes

State Highs State Lows

Community

WunderPhotos

Upload Photos

1,851,628 photos uploaded!

WunderBlogs® & News

Nearby

Air Quality

  Air Quality AQ Index Pollutant
Not available.

Snow Depth

Station Depth Elevation

Earthquake Activity

City Distance Mag. Time & Date
Minimum magnitude displayed is 2.5.

Coastal Water Temperatures

Place Temperature

Stations

Nearby Weather Stations

Station Location Temp. Windchill Dew Point Humidity Wind Precip. Elev Updated Type